sensor_id;sensor_type;location;lat;lon;timestamp;P1;durP1;ratioP1;P2;durP2;ratioP2
3355;SDS011;1691;52.486;13.374;2024-02-26T00:00:41;13.63;;;10.30;;
3355;SDS011;1691;52.486;13.374;2024-02-26T00:03:08;12.87;;;10.67;;
3355;SDS011;1691;52.486;13.374;2024-02-26T00:05:35;17.40;;;12.17;;
3355;SDS011;1691;52.486;13.374;2024-02-26T00:08:04;17.40;;;12.70;;
3355;SDS011;1691;52.486;13.374;2024-02-26T00:10:31;18.67;;;12.50;;
3355;SDS011;1691;52.486;13.374;2024-02-26T00:12:58;20.13;;;11.73;;
3355;SDS011;1691;52.486;13.374;2024-02-26T00:15:25;19.50;;;11.10;;
3355;SDS011;1691;52.486;13.374;2024-02-26T00:17:54;16.53;;;11.53;;
3355;SDS011;1691;52.486;13.374;2024-02-26T00:20:21;13.00;;;11.17;;
3355;SDS011;1691;52.486;13.374;2024-02-26T00:22:48;19.07;;;10.43;;
3355;SDS011;1691;52.486;13.374;2024-02-26T00:25:15;16.80;;;10.80;;
3355;SDS011;1691;52.486;13.374;2024-02-26T00:27:42;13.50;;;9.90;;
3355;SDS011;1691;52.486;13.374;2024-02-26T00:30:11;14.83;;;10.30;;
3355;SDS011;1691;52.486;13.374;2024-02-26T00:32:39;15.40;;;10.77;;
3355;SDS011;1691;52.486;13.374;2024-02-26T00:35:06;15.93;;;10.73;;
3355;SDS011;1691;52.486;13.374;2024-02-26T00:37:33;12.20;;;10.47;;
3355;SDS011;1691;52.486;13.374;2024-02-26T00:40:00;11.43;;;10.30;;
3355;SDS011;1691;52.486;13.374;2024-02-26T00:42:28;11.20;;;9.93;;
3355;SDS011;1691;52.486;13.374;2024-02-26T00:44:55;11.93;;;10.00;;
3355;SDS011;1691;52.486;13.374;2024-02-26T00:47:22;17.50;;;10.03;;
3355;SDS011;1691;52.486;13.374;2024-02-26T00:49:49;10.70;;;9.27;;
3355;SDS011;1691;52.486;13.374;2024-02-26T00:52:16;17.27;;;10.90;;
3355;SDS011;1691;52.486;13.374;2024-02-26T00:54:43;11.10;;;9.90;;
3355;SDS011;1691;52.486;13.374;2024-02-26T00:57:10;14.73;;;10.00;;
3355;SDS011;1691;52.486;13.374;2024-02-26T00:59:37;10.73;;;9.70;;
3355;SDS011;1691;52.486;13.374;2024-02-26T01:02:05;13.03;;;11.57;;
3355;SDS011;1691;52.486;13.374;2024-02-26T01:04:33;12.77;;;10.40;;
3355;SDS011;1691;52.486;13.374;2024-02-26T01:07:00;12.20;;;9.07;;
3355;SDS011;1691;52.486;13.374;2024-02-26T01:09:27;12.33;;;9.20;;
3355;SDS011;1691;52.486;13.374;2024-02-26T01:11:54;10.50;;;9.40;;
3355;SDS011;1691;52.486;13.374;2024-02-26T01:14:21;10.30;;;8.70;;
3355;SDS011;1691;52.486;13.374;2024-02-26T01:16:49;10.43;;;9.00;;
3355;SDS011;1691;52.486;13.374;2024-02-26T01:19:16;8.53;;;7.73;;
3355;SDS011;1691;52.486;13.374;2024-02-26T01:21:43;9.13;;;8.40;;
3355;SDS011;1691;52.486;13.374;2024-02-26T01:24:10;10.00;;;8.20;;
3355;SDS011;1691;52.486;13.374;2024-02-26T01:26:37;8.23;;;7.53;;
3355;SDS011;1691;52.486;13.374;2024-02-26T01:29:05;8.93;;;8.03;;
3355;SDS011;1691;52.486;13.374;2024-02-26T01:31:32;9.27;;;8.47;;
3355;SDS011;1691;52.486;13.374;2024-02-26T01:33:59;9.60;;;8.60;;
3355;SDS011;1691;52.486;13.374;2024-02-26T01:36:27;10.23;;;9.03;;
3355;SDS011;1691;52.486;13.374;2024-02-26T01:38:54;9.40;;;8.50;;
3355;SDS011;1691;52.486;13.374;2024-02-26T01:41:21;9.60;;;8.70;;
3355;SDS011;1691;52.486;13.374;2024-02-26T01:43:48;10.57;;;9.07;;
3355;SDS011;1691;52.486;13.374;2024-02-26T01:46:15;9.60;;;8.77;;
3355;SDS011;1691;52.486;13.374;2024-02-26T01:48:44;9.53;;;8.43;;
3355;SDS011;1691;52.486;13.374;2024-02-26T01:51:13;8.70;;;7.90;;
3355;SDS011;1691;52.486;13.374;2024-02-26T01:53:42;13.67;;;9.23;;
3355;SDS011;1691;52.486;13.374;2024-02-26T01:56:09;16.50;;;10.00;;
3355;SDS011;1691;52.486;13.374;2024-02-26T01:58:38;9.23;;;8.50;;
3355;SDS011;1691;52.486;13.374;2024-02-26T02:01:05;9.43;;;8.50;;
3355;SDS011;1691;52.486;13.374;2024-02-26T02:03:32;9.70;;;8.70;;
3355;SDS011;1691;52.486;13.374;2024-02-26T02:06:00;8.80;;;7.87;;
3355;SDS011;1691;52.486;13.374;2024-02-26T02:08:28;10.10;;;7.90;;
3355;SDS011;1691;52.486;13.374;2024-02-26T02:10:55;8.40;;;7.47;;
3355;SDS011;1691;52.486;13.374;2024-02-26T02:13:22;8.37;;;7.57;;
3355;SDS011;1691;52.486;13.374;2024-02-26T02:15:49;8.10;;;7.33;;
3355;SDS011;1691;52.486;13.374;2024-02-26T02:18:16;7.60;;;6.90;;
3355;SDS011;1691;52.486;13.374;2024-02-26T02:20:45;9.77;;;7.93;;
3355;SDS011;1691;52.486;13.374;2024-02-26T02:23:12;8.40;;;7.60;;
3355;SDS011;1691;52.486;13.374;2024-02-26T02:25:40;9.97;;;7.57;;
3355;SDS011;1691;52.486;13.374;2024-02-26T02:28:07;9.50;;;6.90;;
3355;SDS011;1691;52.486;13.374;2024-02-26T02:30:34;7.23;;;6.63;;
3355;SDS011;1691;52.486;13.374;2024-02-26T02:33:02;7.40;;;6.73;;
3355;SDS011;1691;52.486;13.374;2024-02-26T02:35:29;6.63;;;6.20;;
3355;SDS011;1691;52.486;13.374;2024-02-26T02:37:57;8.63;;;6.00;;
3355;SDS011;1691;52.486;13.374;2024-02-26T02:40:24;6.17;;;5.80;;
3355;SDS011;1691;52.486;13.374;2024-02-26T02:42:53;5.90;;;5.60;;
3355;SDS011;1691;52.486;13.374;2024-02-26T02:45:20;6.00;;;5.70;;
3355;SDS011;1691;52.486;13.374;2024-02-26T02:47:47;6.30;;;5.80;;
3355;SDS011;1691;52.486;13.374;2024-02-26T02:50:14;6.73;;;6.03;;
3355;SDS011;1691;52.486;13.374;2024-02-26T02:52:41;7.43;;;6.30;;
3355;SDS011;1691;52.486;13.374;2024-02-26T02:55:08;7.00;;;6.33;;
3355;SDS011;1691;52.486;13.374;2024-02-26T02:57:35;6.47;;;5.83;;
3355;SDS011;1691;52.486;13.374;2024-02-26T03:00:07;6.07;;;5.60;;
3355;SDS011;1691;52.486;13.374;2024-02-26T03:02:36;5.83;;;5.27;;
3355;SDS011;1691;52.486;13.374;2024-02-26T03:05:03;6.67;;;5.27;;
3355;SDS011;1691;52.486;13.374;2024-02-26T03:07:31;6.70;;;6.10;;
3355;SDS011;1691;52.486;13.374;2024-02-26T03:09:58;6.20;;;4.90;;
3355;SDS011;1691;52.486;13.374;2024-02-26T03:12:25;6.17;;;5.63;;
3355;SDS011;1691;52.486;13.374;2024-02-26T03:14:54;6.23;;;5.73;;
3355;SDS011;1691;52.486;13.374;2024-02-26T03:17:21;6.37;;;6.00;;
3355;SDS011;1691;52.486;13.374;2024-02-26T03:19:50;6.23;;;5.67;;
3355;SDS011;1691;52.486;13.374;2024-02-26T03:22:20;6.97;;;6.30;;
3355;SDS011;1691;52.486;13.374;2024-02-26T03:24:47;7.13;;;6.00;;
3355;SDS011;1691;52.486;13.374;2024-02-26T03:27:15;5.83;;;5.63;;
3355;SDS011;1691;52.486;13.374;2024-02-26T03:29:42;5.93;;;5.47;;
3355;SDS011;1691;52.486;13.374;2024-02-26T03:32:09;6.17;;;5.63;;
3355;SDS011;1691;52.486;13.374;2024-02-26T03:34:36;7.03;;;6.43;;
3355;SDS011;1691;52.486;13.374;2024-02-26T03:37:05;7.33;;;6.87;;
3355;SDS011;1691;52.486;13.374;2024-02-26T03:39:33;6.67;;;6.07;;
3355;SDS011;1691;52.486;13.374;2024-02-26T03:42:00;6.77;;;6.23;;
3355;SDS011;1691;52.486;13.374;2024-02-26T03:44:28;6.50;;;6.00;;
3355;SDS011;1691;52.486;13.374;2024-02-26T03:46:55;6.47;;;5.97;;
3355;SDS011;1691;52.486;13.374;2024-02-26T03:49:22;17.63;;;7.93;;
3355;SDS011;1691;52.486;13.374;2024-02-26T03:51:49;7.47;;;6.77;;
3355;SDS011;1691;52.486;13.374;2024-02-26T03:54:16;7.57;;;6.83;;
3355;SDS011;1691;52.486;13.374;2024-02-26T03:56:43;7.90;;;7.27;;
3355;SDS011;1691;52.486;13.374;2024-02-26T03:59:10;9.43;;;6.43;;
3355;SDS011;1691;52.486;13.374;2024-02-26T04:01:37;9.10;;;7.20;;
3355;SDS011;1691;52.486;13.374;2024-02-26T04:04:04;6.90;;;6.40;;
3355;SDS011;1691;52.486;13.374;2024-02-26T04:06:32;8.67;;;7.10;;
3355;SDS011;1691;52.486;13.374;2024-02-26T04:08:59;6.67;;;6.27;;
3355;SDS011;1691;52.486;13.374;2024-02-26T04:11:28;7.60;;;7.00;;
3355;SDS011;1691;52.486;13.374;2024-02-26T04:13:55;7.77;;;7.17;;
3355;SDS011;1691;52.486;13.374;2024-02-26T04:16:23;8.30;;;7.60;;
3355;SDS011;1691;52.486;13.374;2024-02-26T04:18:50;11.60;;;6.70;;
3355;SDS011;1691;52.486;13.374;2024-02-26T04:21:17;8.50;;;7.83;;
3355;SDS011;1691;52.486;13.374;2024-02-26T04:23:44;13.50;;;7.67;;
3355;SDS011;1691;52.486;13.374;2024-02-26T04:26:11;10.70;;;9.27;;
3355;SDS011;1691;52.486;13.374;2024-02-26T04:28:38;8.87;;;8.07;;
3355;SDS011;1691;52.486;13.374;2024-02-26T04:31:05;8.27;;;7.57;;
3355;SDS011;1691;52.486;13.374;2024-02-26T04:33:33;8.00;;;7.40;;
3355;SDS011;1691;52.486;13.374;2024-02-26T04:36:01;9.47;;;8.57;;
3355;SDS011;1691;52.486;13.374;2024-02-26T04:38:29;8.20;;;7.60;;
3355;SDS011;1691;52.486;13.374;2024-02-26T04:40:56;8.93;;;8.13;;
3355;SDS011;1691;52.486;13.374;2024-02-26T04:43:23;7.77;;;7.27;;
3355;SDS011;1691;52.486;13.374;2024-02-26T04:45:50;7.77;;;7.13;;
3355;SDS011;1691;52.486;13.374;2024-02-26T04:48:17;7.50;;;7.00;;
3355;SDS011;1691;52.486;13.374;2024-02-26T04:50:44;13.73;;;7.57;;
3355;SDS011;1691;52.486;13.374;2024-02-26T04:53:11;7.73;;;7.07;;
3355;SDS011;1691;52.486;13.374;2024-02-26T04:55:38;9.83;;;8.30;;
3355;SDS011;1691;52.486;13.374;2024-02-26T04:58:05;10.07;;;7.73;;
3355;SDS011;1691;52.486;13.374;2024-02-26T05:00:32;10.10;;;8.60;;
3355;SDS011;1691;52.486;13.374;2024-02-26T05:02:59;8.60;;;7.73;;
3355;SDS011;1691;52.486;13.374;2024-02-26T05:05:26;9.03;;;8.23;;
3355;SDS011;1691;52.486;13.374;2024-02-26T05:07:53;9.27;;;8.47;;
3355;SDS011;1691;52.486;13.374;2024-02-26T05:10:20;8.93;;;8.20;;
3355;SDS011;1691;52.486;13.374;2024-02-26T05:12:47;10.20;;;8.80;;
3355;SDS011;1691;52.486;13.374;2024-02-26T05:15:14;9.93;;;9.00;;
3355;SDS011;1691;52.486;13.374;2024-02-26T05:17:45;16.10;;;8.60;;
3355;SDS011;1691;52.486;13.374;2024-02-26T05:20:12;9.90;;;8.90;;
3355;SDS011;1691;52.486;13.374;2024-02-26T05:22:39;10.20;;;9.30;;
3355;SDS011;1691;52.486;13.374;2024-02-26T05:25:06;10.10;;;9.20;;
3355;SDS011;1691;52.486;13.374;2024-02-26T05:27:33;9.00;;;8.30;;
3355;SDS011;1691;52.486;13.374;2024-02-26T05:30:00;11.63;;;9.60;;
3355;SDS011;1691;52.486;13.374;2024-02-26T05:32:27;15.37;;;9.03;;
3355;SDS011;1691;52.486;13.374;2024-02-26T05:34:54;12.00;;;9.87;;
3355;SDS011;1691;52.486;13.374;2024-02-26T05:37:21;12.30;;;9.40;;
3355;SDS011;1691;52.486;13.374;2024-02-26T05:39:48;10.33;;;9.37;;
3355;SDS011;1691;52.486;13.374;2024-02-26T05:42:15;11.50;;;10.27;;
3355;SDS011;1691;52.486;13.374;2024-02-26T05:44:42;10.80;;;9.67;;
3355;SDS011;1691;52.486;13.374;2024-02-26T05:47:09;10.50;;;9.53;;
3355;SDS011;1691;52.486;13.374;2024-02-26T05:49:36;11.80;;;9.77;;
3355;SDS011;1691;52.486;13.374;2024-02-26T05:52:04;13.47;;;10.53;;
3355;SDS011;1691;52.486;13.374;2024-02-26T05:54:31;11.27;;;10.17;;
3355;SDS011;1691;52.486;13.374;2024-02-26T05:56:58;12.30;;;11.00;;
3355;SDS011;1691;52.486;13.374;2024-02-26T05:59:25;12.70;;;11.53;;
3355;SDS011;1691;52.486;13.374;2024-02-26T06:01:52;30.40;;;11.00;;
3355;SDS011;1691;52.486;13.374;2024-02-26T06:04:19;17.90;;;11.07;;
3355;SDS011;1691;52.486;13.374;2024-02-26T06:06:47;14.07;;;10.30;;
3355;SDS011;1691;52.486;13.374;2024-02-26T06:09:14;12.57;;;10.60;;
3355;SDS011;1691;52.486;13.374;2024-02-26T06:11:41;13.20;;;10.43;;
3355;SDS011;1691;52.486;13.374;2024-02-26T06:14:08;32.27;;;10.93;;
3355;SDS011;1691;52.486;13.374;2024-02-26T06:16:36;21.10;;;11.67;;
3355;SDS011;1691;52.486;13.374;2024-02-26T06:19:03;13.30;;;10.77;;
3355;SDS011;1691;52.486;13.374;2024-02-26T06:21:30;28.43;;;11.33;;
3355;SDS011;1691;52.486;13.374;2024-02-26T06:23:57;11.33;;;9.90;;
3355;SDS011;1691;52.486;13.374;2024-02-26T06:26:25;17.10;;;11.20;;
3355;SDS011;1691;52.486;13.374;2024-02-26T06:28:55;17.77;;;10.83;;
3355;SDS011;1691;52.486;13.374;2024-02-26T06:31:22;16.53;;;11.80;;
3355;SDS011;1691;52.486;13.374;2024-02-26T06:33:49;14.83;;;12.50;;
3355;SDS011;1691;52.486;13.374;2024-02-26T06:36:17;17.10;;;12.30;;
3355;SDS011;1691;52.486;13.374;2024-02-26T06:38:44;12.00;;;10.20;;
3355;SDS011;1691;52.486;13.374;2024-02-26T06:41:11;15.50;;;11.33;;
3355;SDS011;1691;52.486;13.374;2024-02-26T06:43:38;13.50;;;11.00;;
3355;SDS011;1691;52.486;13.374;2024-02-26T06:46:05;12.80;;;9.87;;
3355;SDS011;1691;52.486;13.374;2024-02-26T06:48:33;11.40;;;9.87;;
3355;SDS011;1691;52.486;13.374;2024-02-26T06:51:00;13.93;;;10.80;;
3355;SDS011;1691;52.486;13.374;2024-02-26T06:53:28;13.07;;;9.87;;
3355;SDS011;1691;52.486;13.374;2024-02-26T06:55:55;12.60;;;10.00;;
3355;SDS011;1691;52.486;13.374;2024-02-26T06:58:22;13.57;;;10.70;;
3355;SDS011;1691;52.486;13.374;2024-02-26T07:00:49;12.67;;;9.70;;
3355;SDS011;1691;52.486;13.374;2024-02-26T07:03:16;16.97;;;10.67;;
3355;SDS011;1691;52.486;13.374;2024-02-26T07:05:43;11.50;;;10.30;;
3355;SDS011;1691;52.486;13.374;2024-02-26T07:08:12;13.23;;;9.80;;
3355;SDS011;1691;52.486;13.374;2024-02-26T07:10:39;10.97;;;9.87;;
3355;SDS011;1691;52.486;13.374;2024-02-26T07:13:06;13.73;;;9.63;;
3355;SDS011;1691;52.486;13.374;2024-02-26T07:15:33;14.13;;;10.50;;
3355;SDS011;1691;52.486;13.374;2024-02-26T07:18:00;13.73;;;9.87;;
3355;SDS011;1691;52.486;13.374;2024-02-26T07:20:30;12.53;;;10.20;;
3355;SDS011;1691;52.486;13.374;2024-02-26T07:22:57;10.37;;;9.30;;
3355;SDS011;1691;52.486;13.374;2024-02-26T07:25:24;11.17;;;9.93;;
3355;SDS011;1691;52.486;13.374;2024-02-26T07:27:51;15.27;;;10.40;;
3355;SDS011;1691;52.486;13.374;2024-02-26T07:30:18;13.50;;;10.07;;
3355;SDS011;1691;52.486;13.374;2024-02-26T07:32:45;12.43;;;9.73;;
3355;SDS011;1691;52.486;13.374;2024-02-26T07:35:16;13.70;;;10.87;;
3355;SDS011;1691;52.486;13.374;2024-02-26T07:37:44;14.53;;;11.33;;
3355;SDS011;1691;52.486;13.374;2024-02-26T07:40:14;12.40;;;10.40;;
3355;SDS011;1691;52.486;13.374;2024-02-26T07:42:41;12.73;;;11.40;;
3355;SDS011;1691;52.486;13.374;2024-02-26T07:45:09;10.90;;;9.80;;
3355;SDS011;1691;52.486;13.374;2024-02-26T07:47:36;16.50;;;11.43;;
3355;SDS011;1691;52.486;13.374;2024-02-26T07:50:10;17.07;;;12.00;;
3355;SDS011;1691;52.486;13.374;2024-02-26T07:52:38;21.63;;;12.10;;
3355;SDS011;1691;52.486;13.374;2024-02-26T07:55:06;17.90;;;11.30;;
3355;SDS011;1691;52.486;13.374;2024-02-26T07:57:33;17.13;;;11.17;;
3355;SDS011;1691;52.486;13.374;2024-02-26T08:00:01;18.13;;;11.40;;
3355;SDS011;1691;52.486;13.374;2024-02-26T08:02:29;14.03;;;12.43;;
3355;SDS011;1691;52.486;13.374;2024-02-26T08:04:56;16.73;;;12.03;;
3355;SDS011;1691;52.486;13.374;2024-02-26T08:07:23;16.20;;;12.37;;
3355;SDS011;1691;52.486;13.374;2024-02-26T08:09:50;15.00;;;13.00;;
3355;SDS011;1691;52.486;13.374;2024-02-26T08:12:17;26.50;;;12.43;;
3355;SDS011;1691;52.486;13.374;2024-02-26T08:14:45;26.93;;;13.13;;
3355;SDS011;1691;52.486;13.374;2024-02-26T08:17:12;13.63;;;12.23;;
3355;SDS011;1691;52.486;13.374;2024-02-26T08:19:39;13.67;;;12.27;;
3355;SDS011;1691;52.486;13.374;2024-02-26T08:22:06;19.30;;;13.40;;
3355;SDS011;1691;52.486;13.374;2024-02-26T08:24:32;15.97;;;11.90;;
3355;SDS011;1691;52.486;13.374;2024-02-26T08:27:00;15.03;;;12.27;;
3355;SDS011;1691;52.486;13.374;2024-02-26T08:29:27;16.73;;;12.37;;
3355;SDS011;1691;52.486;13.374;2024-02-26T08:31:54;18.50;;;12.43;;
3355;SDS011;1691;52.486;13.374;2024-02-26T08:34:21;18.50;;;12.67;;
3355;SDS011;1691;52.486;13.374;2024-02-26T08:36:48;24.27;;;13.20;;
3355;SDS011;1691;52.486;13.374;2024-02-26T08:39:17;16.00;;;12.70;;
3355;SDS011;1691;52.486;13.374;2024-02-26T08:41:44;14.90;;;12.90;;
3355;SDS011;1691;52.486;13.374;2024-02-26T08:44:11;23.83;;;12.37;;
3355;SDS011;1691;52.486;13.374;2024-02-26T08:46:38;16.30;;;12.90;;
3355;SDS011;1691;52.486;13.374;2024-02-26T08:49:05;19.83;;;13.20;;
3355;SDS011;1691;52.486;13.374;2024-02-26T08:51:32;21.80;;;14.10;;
3355;SDS011;1691;52.486;13.374;2024-02-26T08:53:59;27.03;;;14.30;;
3355;SDS011;1691;52.486;13.374;2024-02-26T08:56:26;19.30;;;14.67;;
3355;SDS011;1691;52.486;13.374;2024-02-26T08:58:53;16.00;;;13.70;;
3355;SDS011;1691;52.486;13.374;2024-02-26T09:01:23;20.77;;;14.20;;
3355;SDS011;1691;52.486;13.374;2024-02-26T09:03:50;20.67;;;14.47;;
3355;SDS011;1691;52.486;13.374;2024-02-26T09:06:17;34.97;;;14.30;;
3355;SDS011;1691;52.486;13.374;2024-02-26T09:08:44;14.67;;;12.83;;
3355;SDS011;1691;52.486;13.374;2024-02-26T09:11:11;13.97;;;12.57;;
3355;SDS011;1691;52.486;13.374;2024-02-26T09:13:38;15.60;;;13.27;;
3355;SDS011;1691;52.486;13.374;2024-02-26T09:16:05;13.70;;;12.30;;
3355;SDS011;1691;52.486;13.374;2024-02-26T09:18:33;14.73;;;12.27;;
3355;SDS011;1691;52.486;13.374;2024-02-26T09:21:03;16.60;;;12.97;;
3355;SDS011;1691;52.486;13.374;2024-02-26T09:23:32;19.13;;;13.37;;
3355;SDS011;1691;52.486;13.374;2024-02-26T09:26:01;19.00;;;14.23;;
3355;SDS011;1691;52.486;13.374;2024-02-26T09:28:28;16.47;;;13.57;;
3355;SDS011;1691;52.486;13.374;2024-02-26T09:30:57;35.23;;;15.23;;
3355;SDS011;1691;52.486;13.374;2024-02-26T09:33:25;19.00;;;14.60;;
3355;SDS011;1691;52.486;13.374;2024-02-26T09:35:52;20.07;;;14.00;;
3355;SDS011;1691;52.486;13.374;2024-02-26T09:38:19;23.87;;;14.07;;
3355;SDS011;1691;52.486;13.374;2024-02-26T09:40:46;16.50;;;12.47;;
3355;SDS011;1691;52.486;13.374;2024-02-26T09:43:14;16.00;;;12.97;;
3355;SDS011;1691;52.486;13.374;2024-02-26T09:45:43;16.33;;;12.80;;
3355;SDS011;1691;52.486;13.374;2024-02-26T09:48:10;21.70;;;12.27;;
3355;SDS011;1691;52.486;13.374;2024-02-26T09:50:40;14.97;;;12.30;;
3355;SDS011;1691;52.486;13.374;2024-02-26T09:53:09;16.27;;;12.70;;
3355;SDS011;1691;52.486;13.374;2024-02-26T09:55:37;14.80;;;13.20;;
3355;SDS011;1691;52.486;13.374;2024-02-26T09:58:05;13.40;;;11.37;;
3355;SDS011;1691;52.486;13.374;2024-02-26T10:00:33;14.03;;;11.73;;
3355;SDS011;1691;52.486;13.374;2024-02-26T10:03:04;15.67;;;12.27;;
3355;SDS011;1691;52.486;13.374;2024-02-26T10:05:33;12.70;;;11.37;;
3355;SDS011;1691;52.486;13.374;2024-02-26T10:08:00;17.07;;;12.07;;
3355;SDS011;1691;52.486;13.374;2024-02-26T10:10:28;12.37;;;11.17;;
3355;SDS011;1691;52.486;13.374;2024-02-26T10:12:55;18.40;;;12.10;;
3355;SDS011;1691;52.486;13.374;2024-02-26T10:15:23;12.20;;;10.90;;
3355;SDS011;1691;52.486;13.374;2024-02-26T10:17:50;11.17;;;9.80;;
3355;SDS011;1691;52.486;13.374;2024-02-26T10:20:17;12.53;;;10.53;;
3355;SDS011;1691;52.486;13.374;2024-02-26T10:22:48;11.27;;;10.17;;
3355;SDS011;1691;52.486;13.374;2024-02-26T10:25:15;10.63;;;9.63;;
3355;SDS011;1691;52.486;13.374;2024-02-26T10:27:42;12.17;;;10.67;;
3355;SDS011;1691;52.486;13.374;2024-02-26T10:33:03;13.73;;;10.00;;
3355;SDS011;1691;52.486;13.374;2024-02-26T10:35:31;14.83;;;11.83;;
3355;SDS011;1691;52.486;13.374;2024-02-26T10:38:00;9.63;;;8.80;;
3355;SDS011;1691;52.486;13.374;2024-02-26T10:40:27;11.20;;;10.20;;
3355;SDS011;1691;52.486;13.374;2024-02-26T10:42:54;10.07;;;9.07;;
3355;SDS011;1691;52.486;13.374;2024-02-26T10:45:21;10.10;;;9.20;;
3355;SDS011;1691;52.486;13.374;2024-02-26T10:47:48;17.03;;;12.57;;
3355;SDS011;1691;52.486;13.374;2024-02-26T10:50:15;13.27;;;11.93;;
3355;SDS011;1691;52.486;13.374;2024-02-26T10:52:43;13.20;;;9.50;;
3355;SDS011;1691;52.486;13.374;2024-02-26T10:55:13;9.70;;;8.70;;
3355;SDS011;1691;52.486;13.374;2024-02-26T10:57:46;10.57;;;8.97;;
3355;SDS011;1691;52.486;13.374;2024-02-26T11:00:17;14.63;;;8.80;;
3355;SDS011;1691;52.486;13.374;2024-02-26T11:02:45;12.27;;;9.50;;
3355;SDS011;1691;52.486;13.374;2024-02-26T11:05:13;11.20;;;9.77;;
3355;SDS011;1691;52.486;13.374;2024-02-26T11:07:41;12.80;;;9.80;;
3355;SDS011;1691;52.486;13.374;2024-02-26T11:10:08;10.07;;;8.73;;
3355;SDS011;1691;52.486;13.374;2024-02-26T11:12:38;10.17;;;8.70;;
3355;SDS011;1691;52.486;13.374;2024-02-26T11:15:06;10.50;;;9.20;;
3355;SDS011;1691;52.486;13.374;2024-02-26T11:17:35;14.00;;;8.63;;
3355;SDS011;1691;52.486;13.374;2024-02-26T11:20:05;13.13;;;8.83;;
3355;SDS011;1691;52.486;13.374;2024-02-26T11:22:39;11.37;;;9.10;;
3355;SDS011;1691;52.486;13.374;2024-02-26T11:25:06;19.43;;;8.73;;
3355;SDS011;1691;52.486;13.374;2024-02-26T11:27:35;10.10;;;9.03;;
3355;SDS011;1691;52.486;13.374;2024-02-26T11:30:10;8.87;;;8.23;;
3355;SDS011;1691;52.486;13.374;2024-02-26T11:32:39;9.00;;;8.07;;
3355;SDS011;1691;52.486;13.374;2024-02-26T11:35:06;9.33;;;8.43;;
3355;SDS011;1691;52.486;13.374;2024-02-26T11:37:34;8.70;;;7.87;;
3355;SDS011;1691;52.486;13.374;2024-02-26T11:40:15;9.33;;;7.57;;
3355;SDS011;1691;52.486;13.374;2024-02-26T11:42:44;10.33;;;8.23;;
3355;SDS011;1691;52.486;13.374;2024-02-26T11:50:48;8.63;;;7.93;;
3355;SDS011;1691;52.486;13.374;2024-02-26T11:53:21;8.00;;;7.40;;
3355;SDS011;1691;52.486;13.374;2024-02-26T11:58:43;8.43;;;7.77;;
3355;SDS011;1691;52.486;13.374;2024-02-26T12:04:12;10.70;;;7.77;;
3355;SDS011;1691;52.486;13.374;2024-02-26T12:06:46;9.20;;;8.40;;
3355;SDS011;1691;52.486;13.374;2024-02-26T12:09:33;9.10;;;8.20;;
3355;SDS011;1691;52.486;13.374;2024-02-26T12:12:07;25.23;;;14.10;;
3355;SDS011;1691;52.486;13.374;2024-02-26T12:14:39;15.73;;;9.73;;
3355;SDS011;1691;52.486;13.374;2024-02-26T12:17:21;9.77;;;8.97;;
3355;SDS011;1691;52.486;13.374;2024-02-26T12:19:50;18.47;;;9.90;;
3355;SDS011;1691;52.486;13.374;2024-02-26T12:22:19;11.20;;;9.20;;
3355;SDS011;1691;52.486;13.374;2024-02-26T12:24:46;11.07;;;9.87;;
3355;SDS011;1691;52.486;13.374;2024-02-26T12:27:13;10.47;;;9.47;;
3355;SDS011;1691;52.486;13.374;2024-02-26T12:29:41;11.20;;;9.20;;
3355;SDS011;1691;52.486;13.374;2024-02-26T12:32:08;10.30;;;9.00;;
3355;SDS011;1691;52.486;13.374;2024-02-26T12:34:37;10.60;;;9.60;;
3355;SDS011;1691;52.486;13.374;2024-02-26T12:37:04;11.27;;;8.90;;
3355;SDS011;1691;52.486;13.374;2024-02-26T12:39:33;18.27;;;9.70;;
3355;SDS011;1691;52.486;13.374;2024-02-26T12:42:01;12.37;;;10.60;;
3355;SDS011;1691;52.486;13.374;2024-02-26T12:44:28;18.77;;;9.93;;
3355;SDS011;1691;52.486;13.374;2024-02-26T12:47:05;11.37;;;10.10;;
3355;SDS011;1691;52.486;13.374;2024-02-26T12:49:32;19.00;;;10.27;;
3355;SDS011;1691;52.486;13.374;2024-02-26T12:51:59;11.87;;;10.40;;
3355;SDS011;1691;52.486;13.374;2024-02-26T12:54:30;13.73;;;9.13;;
3355;SDS011;1691;52.486;13.374;2024-02-26T12:56:59;14.77;;;9.57;;
3355;SDS011;1691;52.486;13.374;2024-02-26T12:59:27;14.43;;;8.60;;
3355;SDS011;1691;52.486;13.374;2024-02-26T13:01:55;10.20;;;8.07;;
3355;SDS011;1691;52.486;13.374;2024-02-26T13:04:23;8.43;;;7.73;;
3355;SDS011;1691;52.486;13.374;2024-02-26T13:06:51;10.00;;;8.00;;
3355;SDS011;1691;52.486;13.374;2024-02-26T13:09:18;8.57;;;7.03;;
3355;SDS011;1691;52.486;13.374;2024-02-26T13:11:45;9.03;;;8.13;;
3355;SDS011;1691;52.486;13.374;2024-02-26T13:14:20;8.60;;;7.67;;
3355;SDS011;1691;52.486;13.374;2024-02-26T13:16:57;12.63;;;7.37;;
3355;SDS011;1691;52.486;13.374;2024-02-26T13:19:24;11.17;;;6.73;;
3355;SDS011;1691;52.486;13.374;2024-02-26T13:21:51;8.27;;;6.50;;
3355;SDS011;1691;52.486;13.374;2024-02-26T13:24:19;6.00;;;5.40;;
3355;SDS011;1691;52.486;13.374;2024-02-26T13:26:46;7.50;;;6.67;;
3355;SDS011;1691;52.486;13.374;2024-02-26T13:29:20;5.93;;;5.53;;
3355;SDS011;1691;52.486;13.374;2024-02-26T13:31:47;6.60;;;6.07;;
3355;SDS011;1691;52.486;13.374;2024-02-26T13:34:24;7.03;;;6.50;;
3355;SDS011;1691;52.486;13.374;2024-02-26T13:36:52;6.33;;;5.90;;
3355;SDS011;1691;52.486;13.374;2024-02-26T13:39:21;12.33;;;5.90;;
3355;SDS011;1691;52.486;13.374;2024-02-26T13:41:52;5.80;;;5.40;;
3355;SDS011;1691;52.486;13.374;2024-02-26T13:44:20;5.53;;;5.17;;
3355;SDS011;1691;52.486;13.374;2024-02-26T13:46:48;6.60;;;4.70;;
3355;SDS011;1691;52.486;13.374;2024-02-26T13:49:18;6.20;;;5.63;;
3355;SDS011;1691;52.486;13.374;2024-02-26T13:51:45;23.93;;;5.53;;
3355;SDS011;1691;52.486;13.374;2024-02-26T13:54:12;5.77;;;4.70;;
3355;SDS011;1691;52.486;13.374;2024-02-26T13:56:41;5.30;;;4.90;;
3355;SDS011;1691;52.486;13.374;2024-02-26T13:59:12;4.87;;;4.67;;
3355;SDS011;1691;52.486;13.374;2024-02-26T14:01:39;7.93;;;4.53;;
3355;SDS011;1691;52.486;13.374;2024-02-26T14:04:06;5.63;;;4.30;;
3355;SDS011;1691;52.486;13.374;2024-02-26T14:06:35;5.73;;;5.23;;
3355;SDS011;1691;52.486;13.374;2024-02-26T14:09:02;5.60;;;5.10;;
3355;SDS011;1691;52.486;13.374;2024-02-26T14:11:30;5.73;;;5.17;;
3355;SDS011;1691;52.486;13.374;2024-02-26T14:13:57;5.50;;;4.77;;
3355;SDS011;1691;52.486;13.374;2024-02-26T14:16:24;4.50;;;4.20;;
3355;SDS011;1691;52.486;13.374;2024-02-26T14:18:52;5.17;;;4.87;;
3355;SDS011;1691;52.486;13.374;2024-02-26T14:21:19;6.20;;;4.90;;
3355;SDS011;1691;52.486;13.374;2024-02-26T14:23:47;6.57;;;5.97;;
3355;SDS011;1691;52.486;13.374;2024-02-26T14:26:14;5.97;;;5.60;;
3355;SDS011;1691;52.486;13.374;2024-02-26T14:28:41;5.87;;;5.37;;
3355;SDS011;1691;52.486;13.374;2024-02-26T14:31:08;6.83;;;6.13;;
3355;SDS011;1691;52.486;13.374;2024-02-26T14:33:39;6.50;;;5.53;;
3355;SDS011;1691;52.486;13.374;2024-02-26T14:36:07;5.53;;;5.20;;
3355;SDS011;1691;52.486;13.374;2024-02-26T14:38:34;7.30;;;6.60;;
3355;SDS011;1691;52.486;13.374;2024-02-26T14:41:02;8.27;;;6.73;;
3355;SDS011;1691;52.486;13.374;2024-02-26T14:43:29;6.33;;;5.83;;
3355;SDS011;1691;52.486;13.374;2024-02-26T14:45:58;7.33;;;6.63;;
3355;SDS011;1691;52.486;13.374;2024-02-26T14:48:28;7.47;;;6.87;;
3355;SDS011;1691;52.486;13.374;2024-02-26T14:50:57;6.97;;;6.40;;
3355;SDS011;1691;52.486;13.374;2024-02-26T14:53:25;6.50;;;5.90;;
3355;SDS011;1691;52.486;13.374;2024-02-26T14:55:52;7.07;;;6.43;;
3355;SDS011;1691;52.486;13.374;2024-02-26T14:58:19;7.90;;;6.50;;
3355;SDS011;1691;52.486;13.374;2024-02-26T15:00:46;6.40;;;5.80;;
3355;SDS011;1691;52.486;13.374;2024-02-26T15:03:13;8.83;;;6.93;;
3355;SDS011;1691;52.486;13.374;2024-02-26T15:05:40;8.43;;;6.83;;